Time;durP1;ratioP1;P1;durP2;ratioP2;P2;SDS_P1;SDS_P2;PMS_P1;PMS_P2;Temp;Humidity;BMP_temperature;BMP_pressure;BME280_temperature;BME280_humidity;BME280_pressure;Samples;Min_cycle;Max_cycle;Signal;HPM_P1;HPM_P2
2022/06/28 00:02:00;;;;;;;1.70;0.80;;;;;;;;;;4991576;28;21055;-16
2022/06/28 00:04:29;;;;;;;1.95;1.10;;;;;;;;;;4992634;28;20244;-16
2022/06/28 00:06:56;;;;;;;1.40;0.77;;;;;;;;;;4995582;28;20794;-16
2022/06/28 00:09:24;;;;;;;2.80;1.27;;;;;;;;;;4997411;28;20311;-15
2022/06/28 00:11:51;;;;;;;2.00;0.75;;;;;;;;;;4993728;28;20228;-15
2022/06/28 00:17:04;;;;;;;1.73;0.80;;;;;;;;;;4994346;28;20232;-16
2022/06/28 00:19:33;;;;;;;2.10;1.02;;;;;;;;;;4992303;28;20228;-16
2022/06/28 00:22:00;;;;;;;1.70;0.93;;;;;;;;;;4991752;28;20248;-16
2022/06/28 00:24:28;;;;;;;4.80;1.05;;;;;;;;;;4994512;28;20239;-16
2022/06/28 00:26:55;;;;;;;3.33;1.00;;;;;;;;;;4994841;28;20233;-16
2022/06/28 00:29:23;;;;;;;1.33;1.10;;;;;;;;;;4978725;28;20236;-15
2022/06/28 00:31:50;;;;;;;1.92;0.80;;;;;;;;;;4994285;28;20234;-16
2022/06/28 00:34:17;;;;;;;1.23;1.00;;;;;;;;;;4991530;28;20236;-16
2022/06/28 00:36:46;;;;;;;3.60;1.00;;;;;;;;;;4992202;28;20232;-16
2022/06/28 00:39:13;;;;;;;1.17;1.00;;;;;;;;;;4991465;28;20239;-16
2022/06/28 00:41:41;;;;;;;3.25;1.20;;;;;;;;;;4990569;28;20236;-16
2022/06/28 00:44:10;;;;;;;1.25;0.90;;;;;;;;;;4991836;28;20235;-16
2022/06/28 00:46:37;;;;;;;1.83;1.08;;;;;;;;;;4985098;28;20263;-16
2022/06/28 00:49:04;;;;;;;3.97;1.10;;;;;;;;;;4992295;28;20659;-16
2022/06/28 00:51:32;;;;;;;2.35;0.98;;;;;;;;;;4991755;28;20275;-16
2022/06/28 00:54:01;;;;;;;1.13;0.85;;;;;;;;;;4991815;28;20240;-16
2022/06/28 00:56:28;;;;;;;2.25;0.93;;;;;;;;;;4991096;28;20986;-16
2022/06/28 00:58:56;;;;;;;3.03;1.23;;;;;;;;;;4991649;28;20240;-16
2022/06/28 01:01:23;;;;;;;1.02;0.90;;;;;;;;;;4999039;28;20240;-16
2022/06/28 01:03:51;;;;;;;2.75;1.02;;;;;;;;;;4991689;28;20687;-16
2022/06/28 01:06:18;;;;;;;1.02;0.90;;;;;;;;;;4990689;28;20727;-16
2022/06/28 01:08:46;;;;;;;1.58;0.90;;;;;;;;;;4991506;28;20236;-16
2022/06/28 01:11:21;;;;;;;2.45;1.10;;;;;;;;;;4991985;28;21020;-16
2022/06/28 01:13:49;;;;;;;1.48;0.85;;;;;;;;;;4991646;28;20239;-16
2022/06/28 01:16:16;;;;;;;1.95;0.95;;;;;;;;;;5000534;28;20736;-16
2022/06/28 01:18:43;;;;;;;1.20;0.80;;;;;;;;;;5000989;28;20616;-16
2022/06/28 01:21:12;;;;;;;3.10;1.30;;;;;;;;;;4996905;28;20758;-16
2022/06/28 01:23:41;;;;;;;1.25;1.00;;;;;;;;;;4990042;28;20244;-16
2022/06/28 01:26:08;;;;;;;3.17;1.48;;;;;;;;;;4994579;28;20239;-16
2022/06/28 01:28:36;;;;;;;2.97;1.23;;;;;;;;;;4989855;28;20340;-15
2022/06/28 01:31:03;;;;;;;5.75;1.15;;;;;;;;;;4997981;28;20227;-16
2022/06/28 01:33:31;;;;;;;0.98;0.88;;;;;;;;;;4993260;28;20267;-16
2022/06/28 01:35:58;;;;;;;1.02;0.80;;;;;;;;;;4991130;28;20243;-16
2022/06/28 01:38:25;;;;;;;1.98;1.08;;;;;;;;;;4990838;28;20228;-16
2022/06/28 01:40:54;;;;;;;1.67;1.20;;;;;;;;;;4990708;28;20243;-16
2022/06/28 01:43:22;;;;;;;1.80;1.27;;;;;;;;;;4990791;28;20228;-16
2022/06/28 01:45:49;;;;;;;0.88;0.82;;;;;;;;;;4996958;28;21242;-16
2022/06/28 01:48:18;;;;;;;1.73;1.00;;;;;;;;;;4991082;28;20278;-16
2022/06/28 01:50:45;;;;;;;7.22;1.05;;;;;;;;;;4990467;28;20858;-16
2022/06/28 01:53:13;;;;;;;2.65;1.27;;;;;;;;;;4992008;28;20718;-15
2022/06/28 01:55:40;;;;;;;2.90;1.10;;;;;;;;;;4994184;28;21022;-16
2022/06/28 01:58:09;;;;;;;1.58;1.10;;;;;;;;;;4994073;28;20609;-16
2022/06/28 02:00:36;;;;;;;1.75;1.15;;;;;;;;;;4998691;28;20239;-15
2022/06/28 02:03:04;;;;;;;4.22;0.98;;;;;;;;;;4997446;28;20273;-16
2022/06/28 02:05:31;;;;;;;2.40;1.73;;;;;;;;;;4994529;28;20224;-15
2022/06/28 02:07:59;;;;;;;1.17;0.98;;;;;;;;;;4994494;28;21002;-15
2022/06/28 02:10:26;;;;;;;2.08;1.20;;;;;;;;;;4991308;28;20630;-15
2022/06/28 02:12:54;;;;;;;3.45;1.00;;;;;;;;;;4993571;28;20224;-16
2022/06/28 02:15:22;;;;;;;1.60;1.30;;;;;;;;;;4996291;28;20290;-15
2022/06/28 02:17:50;;;;;;;1.98;1.30;;;;;;;;;;5003303;28;20239;-16
2022/06/28 02:20:17;;;;;;;3.40;1.40;;;;;;;;;;4993480;28;20240;-15
2022/06/28 02:22:45;;;;;;;1.08;0.90;;;;;;;;;;4993626;28;20244;-16
2022/06/28 02:25:12;;;;;;;2.40;1.05;;;;;;;;;;4993980;28;21155;-15
2022/06/28 02:27:39;;;;;;;2.75;1.50;;;;;;;;;;4994191;28;20288;-15
2022/06/28 02:30:07;;;;;;;2.17;1.25;;;;;;;;;;4993367;28;20232;-15
2022/06/28 02:32:36;;;;;;;2.58;1.40;;;;;;;;;;4999169;28;20714;-16
2022/06/28 02:40:34;;;;;;;1.60;1.10;;;;;;;;;;4993775;28;20239;-16
2022/06/28 02:43:01;;;;;;;1.60;1.20;;;;;;;;;;4993818;28;20246;-16
2022/06/28 02:45:30;;;;;;;1.38;1.15;;;;;;;;;;4992829;28;20232;-16
2022/06/28 02:47:58;;;;;;;2.88;1.05;;;;;;;;;;4992675;28;20236;-16
2022/06/28 02:50:26;;;;;;;1.80;0.95;;;;;;;;;;4991997;28;20722;-16
2022/06/28 02:52:53;;;;;;;3.20;1.70;;;;;;;;;;5006739;28;20232;-16
2022/06/28 02:55:20;;;;;;;6.25;1.25;;;;;;;;;;4993687;28;20247;-16
2022/06/28 02:57:48;;;;;;;1.52;1.10;;;;;;;;;;4993365;28;20243;-16
2022/06/28 03:00:16;;;;;;;1.70;1.00;;;;;;;;;;4993891;28;20229;-16
2022/06/28 03:02:44;;;;;;;2.58;1.30;;;;;;;;;;4993437;28;20981;-16
2022/06/28 03:05:14;;;;;;;1.30;1.10;;;;;;;;;;4992174;28;20323;-16
2022/06/28 03:07:41;;;;;;;2.05;1.33;;;;;;;;;;4992895;28;20267;-16
2022/06/28 03:10:09;;;;;;;2.03;1.25;;;;;;;;;;4992087;28;20243;-16
2022/06/28 03:12:36;;;;;;;2.28;1.45;;;;;;;;;;4993807;28;20231;-15
2022/06/28 03:15:05;;;;;;;3.47;1.25;;;;;;;;;;4993245;28;20271;-16
2022/06/28 03:17:32;;;;;;;2.05;1.10;;;;;;;;;;5000032;28;20710;-16
2022/06/28 03:20:00;;;;;;;2.35;1.20;;;;;;;;;;4992758;28;20330;-16
2022/06/28 03:22:29;;;;;;;2.97;1.30;;;;;;;;;;4993195;28;20746;-16
2022/06/28 03:24:57;;;;;;;2.40;1.15;;;;;;;;;;4993224;28;20232;-16
2022/06/28 03:27:24;;;;;;;1.80;1.17;;;;;;;;;;4993235;28;20243;-16
2022/06/28 03:29:51;;;;;;;2.03;1.10;;;;;;;;;;4992293;28;20235;-16
2022/06/28 03:32:19;;;;;;;6.50;1.27;;;;;;;;;;5006561;28;20989;-16
2022/06/28 03:34:46;;;;;;;5.30;1.33;;;;;;;;;;4992453;28;20291;-16
2022/06/28 03:37:15;;;;;;;2.10;1.30;;;;;;;;;;4993299;28;20243;-16
2022/06/28 03:39:43;;;;;;;1.67;1.00;;;;;;;;;;4992742;28;20238;-16
2022/06/28 03:42:11;;;;;;;3.03;1.10;;;;;;;;;;5007612;28;20702;-16
2022/06/28 03:44:38;;;;;;;2.17;0.95;;;;;;;;;;4993296;28;20298;-16
2022/06/28 03:47:06;;;;;;;1.90;1.40;;;;;;;;;;4996008;28;20242;-16
2022/06/28 03:49:33;;;;;;;1.98;0.95;;;;;;;;;;4993126;28;20238;-15
2022/06/28 03:52:00;;;;;;;2.83;1.55;;;;;;;;;;4992394;28;20228;-15
2022/06/28 03:54:28;;;;;;;2.03;1.20;;;;;;;;;;4992834;28;20236;-15
2022/06/28 03:56:56;;;;;;;1.55;1.02;;;;;;;;;;4992318;28;20250;-16
2022/06/28 03:59:24;;;;;;;1.40;1.00;;;;;;;;;;4992064;28;20236;-14
2022/06/28 04:01:51;;;;;;;2.50;1.20;;;;;;;;;;4998276;28;20240;-16
2022/06/28 04:04:19;;;;;;;1.33;0.85;;;;;;;;;;4992029;28;20228;-15
2022/06/28 04:06:46;;;;;;;2.35;1.10;;;;;;;;;;4992926;28;20228;-15
2022/06/28 04:09:13;;;;;;;1.67;1.10;;;;;;;;;;4992306;28;20228;-16
2022/06/28 04:11:41;;;;;;;1.92;1.10;;;;;;;;;;4992756;28;20232;-15
2022/06/28 04:14:13;;;;;;;1.50;1.30;;;;;;;;;;4992275;28;20600;-16
2022/06/28 04:16:41;;;;;;;2.88;1.38;;;;;;;;;;5000411;28;20267;-16
2022/06/28 04:19:08;;;;;;;2.38;1.30;;;;;;;;;;4992558;28;20972;-16
2022/06/28 04:21:36;;;;;;;1.95;1.10;;;;;;;;;;4992089;28;20247;-16
2022/06/28 04:24:03;;;;;;;3.10;1.02;;;;;;;;;;4991656;28;20332;-14
2022/06/28 04:26:31;;;;;;;1.35;0.98;;;;;;;;;;4991699;28;20224;-16
2022/06/28 04:28:58;;;;;;;3.22;1.20;;;;;;;;;;4992640;28;20232;-15
2022/06/28 04:31:27;;;;;;;1.83;1.00;;;;;;;;;;5002655;28;20234;-15
2022/06/28 04:33:54;;;;;;;1.20;0.90;;;;;;;;;;4992425;28;20246;-16
2022/06/28 04:36:22;;;;;;;1.63;0.80;;;;;;;;;;4991468;28;20232;-15
2022/06/28 04:38:50;;;;;;;2.75;0.90;;;;;;;;;;4991720;28;21058;-16
2022/06/28 04:41:19;;;;;;;1.17;1.00;;;;;;;;;;4999948;28;20242;-16
2022/06/28 04:43:46;;;;;;;1.70;1.23;;;;;;;;;;4997641;28;21000;-16
2022/06/28 04:46:14;;;;;;;2.67;0.80;;;;;;;;;;4994648;28;20228;-16
2022/06/28 04:48:42;;;;;;;1.48;0.98;;;;;;;;;;4998856;28;20235;-16
2022/06/28 04:51:13;;;;;;;1.70;1.30;;;;;;;;;;4991993;28;20228;-15
2022/06/28 04:53:40;;;;;;;2.97;1.20;;;;;;;;;;4991798;28;20247;-16
2022/06/28 04:56:08;;;;;;;1.85;1.13;;;;;;;;;;4991880;28;20619;-15
2022/06/28 04:58:35;;;;;;;1.30;1.02;;;;;;;;;;4991201;28;20236;-16
2022/06/28 05:01:02;;;;;;;2.40;1.10;;;;;;;;;;4996075;28;20231;-16
2022/06/28 05:03:40;;;;;;;2.72;1.13;;;;;;;;;;4991221;28;20232;-16
2022/06/28 05:06:09;;;;;;;1.65;1.13;;;;;;;;;;4989043;28;20232;-15
2022/06/28 05:08:36;;;;;;;1.35;1.20;;;;;;;;;;4988902;28;20284;-16
2022/06/28 05:11:04;;;;;;;1.52;1.02;;;;;;;;;;4994329;28;20238;-15
2022/06/28 05:13:31;;;;;;;1.30;1.13;;;;;;;;;;5001343;28;20785;-16
2022/06/28 05:15:58;;;;;;;1.75;1.23;;;;;;;;;;4985604;28;20615;-16
2022/06/28 05:18:26;;;;;;;2.13;1.15;;;;;;;;;;4979765;28;20749;-14
2022/06/28 05:20:59;;;;;;;4.45;1.40;;;;;;;;;;4984964;28;20331;-16
2022/06/28 05:23:28;;;;;;;4.28;1.13;;;;;;;;;;4975780;28;21089;-15
2022/06/28 05:25:55;;;;;;;4.47;1.30;;;;;;;;;;4978442;28;20237;-16
2022/06/28 05:28:23;;;;;;;5.03;1.30;;;;;;;;;;4987607;28;20236;-16
2022/06/28 05:30:50;;;;;;;3.95;1.50;;;;;;;;;;4985805;28;20232;-16
2022/06/28 05:33:18;;;;;;;2.20;1.33;;;;;;;;;;4991197;28;20236;-16
2022/06/28 05:35:45;;;;;;;3.90;1.58;;;;;;;;;;4990993;28;20236;-16
2022/06/28 05:38:13;;;;;;;2.92;1.20;;;;;;;;;;4990469;28;20232;-15
2022/06/28 05:40:41;;;;;;;8.40;1.55;;;;;;;;;;4994756;28;20243;-15
2022/06/28 05:43:09;;;;;;;3.10;2.10;;;;;;;;;;4990848;28;20236;-16
2022/06/28 05:45:36;;;;;;;8.20;2.30;;;;;;;;;;4995526;28;20716;-16
2022/06/28 05:48:04;;;;;;;4.30;1.73;;;;;;;;;;4991459;28;20358;-16
2022/06/28 05:50:31;;;;;;;3.83;2.63;;;;;;;;;;4991439;28;20228;-15
2022/06/28 05:52:59;;;;;;;5.55;2.60;;;;;;;;;;4990530;28;20228;-16
2022/06/28 05:55:26;;;;;;;4.97;2.58;;;;;;;;;;4991364;28;20238;-16
2022/06/28 05:57:55;;;;;;;7.50;2.30;;;;;;;;;;5004560;28;20236;-15
2022/06/28 06:00:22;;;;;;;5.93;2.33;;;;;;;;;;4990508;28;20240;-16
2022/06/28 06:02:50;;;;;;;5.20;2.40;;;;;;;;;;4984911;28;20233;-16
2022/06/28 06:05:17;;;;;;;8.95;3.10;;;;;;;;;;4990120;28;20231;-15
2022/06/28 06:07:45;;;;;;;7.60;2.70;;;;;;;;;;4995343;28;20405;-15
2022/06/28 06:10:12;;;;;;;6.32;2.72;;;;;;;;;;4987890;28;20250;-15
2022/06/28 06:12:40;;;;;;;3.88;1.98;;;;;;;;;;4990368;28;20234;-15
2022/06/28 06:15:09;;;;;;;10.93;2.35;;;;;;;;;;4992550;28;20235;-16
2022/06/28 06:17:37;;;;;;;5.20;2.40;;;;;;;;;;4990763;28;20272;-15
2022/06/28 06:20:08;;;;;;;6.13;2.88;;;;;;;;;;4990767;28;21094;-16
2022/06/28 06:22:36;;;;;;;4.43;2.38;;;;;;;;;;4990078;28;20248;-15
2022/06/28 06:25:05;;;;;;;5.25;1.92;;;;;;;;;;4990530;28;20298;-14
2022/06/28 06:27:36;;;;;;;5.30;2.08;;;;;;;;;;4978635;28;20236;-15
2022/06/28 06:30:06;;;;;;;6.97;2.22;;;;;;;;;;4990290;28;20232;-16
2022/06/28 06:32:34;;;;;;;6.80;2.30;;;;;;;;;;4989591;28;20610;-16
2022/06/28 06:35:02;;;;;;;5.13;2.42;;;;;;;;;;4990357;28;20383;-16
2022/06/28 06:37:29;;;;;;;4.03;2.35;;;;;;;;;;4988527;28;20295;-16
2022/06/28 06:39:57;;;;;;;7.95;2.63;;;;;;;;;;4990490;28;20864;-15
2022/06/28 06:42:24;;;;;;;3.20;2.05;;;;;;;;;;4992938;28;20662;-16
2022/06/28 06:44:52;;;;;;;4.65;2.17;;;;;;;;;;4990793;28;20981;-15
2022/06/28 06:47:19;;;;;;;6.40;1.80;;;;;;;;;;4993661;28;20250;-16
2022/06/28 06:49:48;;;;;;;5.25;1.80;;;;;;;;;;4987607;28;20236;-15
2022/06/28 06:52:15;;;;;;;3.35;1.60;;;;;;;;;;4991752;28;20228;-15
2022/06/28 06:54:43;;;;;;;3.83;1.42;;;;;;;;;;4993138;28;20240;-15
2022/06/28 06:57:10;;;;;;;4.53;1.45;;;;;;;;;;4987541;28;20228;-16
2022/06/28 06:59:38;;;;;;;7.55;1.88;;;;;;;;;;4995160;28;20247;-15
2022/06/28 07:02:05;;;;;;;5.07;1.67;;;;;;;;;;4989751;28;20233;-16
2022/06/28 07:04:32;;;;;;;5.90;1.83;;;;;;;;;;4990224;28;20239;-16
2022/06/28 07:07:01;;;;;;;8.00;2.03;;;;;;;;;;4990889;28;20247;-16
2022/06/28 07:09:29;;;;;;;11.73;1.90;;;;;;;;;;4991812;28;20238;-16
2022/06/28 07:11:56;;;;;;;6.68;2.03;;;;;;;;;;4984834;28;20229;-16
2022/06/28 07:14:23;;;;;;;4.57;2.03;;;;;;;;;;4990147;28;20242;-16
2022/06/28 07:16:51;;;;;;;4.38;2.17;;;;;;;;;;4984604;28;20232;-16
2022/06/28 07:19:18;;;;;;;3.88;2.22;;;;;;;;;;4987058;28;20240;-16
2022/06/28 07:21:46;;;;;;;3.83;2.10;;;;;;;;;;4990520;28;20241;-16
2022/06/28 07:24:14;;;;;;;2.80;2.28;;;;;;;;;;4986033;28;20320;-16
2022/06/28 07:26:42;;;;;;;5.85;2.58;;;;;;;;;;4991611;28;20243;-16
2022/06/28 07:29:09;;;;;;;4.75;2.10;;;;;;;;;;4989316;28;20285;-16
2022/06/28 07:31:40;;;;;;;5.63;2.33;;;;;;;;;;4991717;28;20362;-16
2022/06/28 07:34:07;;;;;;;7.20;1.90;;;;;;;;;;4992245;28;20731;-16
2022/06/28 07:36:35;;;;;;;5.53;1.60;;;;;;;;;;4992515;28;20236;-16
2022/06/28 07:39:02;;;;;;;6.20;2.20;;;;;;;;;;4991879;28;20718;-16
2022/06/28 07:41:31;;;;;;;5.75;1.98;;;;;;;;;;4991444;28;21064;-16
2022/06/28 07:43:58;;;;;;;9.23;2.05;;;;;;;;;;4989096;28;20232;-16
2022/06/28 07:46:26;;;;;;;5.43;2.00;;;;;;;;;;4987325;28;20232;-16
2022/06/28 07:48:53;;;;;;;7.00;1.92;;;;;;;;;;4986760;28;20298;-16
2022/06/28 07:54:05;;;;;;;9.30;1.77;;;;;;;;;;4994203;28;20231;-16
2022/06/28 07:56:34;;;;;;;11.90;2.42;;;;;;;;;;4992165;28;20227;-16
2022/06/28 07:59:02;;;;;;;12.23;1.67;;;;;;;;;;5006223;28;20232;-16
2022/06/28 08:01:29;;;;;;;12.10;2.17;;;;;;;;;;4994094;28;20247;-16
2022/06/28 08:03:57;;;;;;;5.05;1.77;;;;;;;;;;4992503;28;20232;-16
2022/06/28 08:06:24;;;;;;;5.82;1.80;;;;;;;;;;4988538;28;20228;-16
2022/06/28 08:08:52;;;;;;;4.68;1.70;;;;;;;;;;4986345;28;20235;-16
2022/06/28 08:11:19;;;;;;;6.25;1.80;;;;;;;;;;4989060;28;20243;-16
2022/06/28 08:13:50;;;;;;;5.65;1.52;;;;;;;;;;4986675;28;20259;-16
2022/06/28 08:16:17;;;;;;;11.45;2.22;;;;;;;;;;4992265;28;20228;-16
2022/06/28 08:18:45;;;;;;;6.57;1.65;;;;;;;;;;4992135;28;20232;-15
2022/06/28 08:21:19;;;;;;;7.82;1.92;;;;;;;;;;4992148;28;20239;-16
2022/06/28 08:23:46;;;;;;;10.90;1.73;;;;;;;;;;4991492;28;20872;-15
2022/06/28 08:26:14;;;;;;;5.43;2.03;;;;;;;;;;4991483;28;20224;-15
2022/06/28 08:28:41;;;;;;;9.38;2.00;;;;;;;;;;5006057;28;20310;-15
2022/06/28 08:31:10;;;;;;;3.97;1.77;;;;;;;;;;5000118;28;20219;-15
2022/06/28 08:33:37;;;;;;;9.75;1.60;;;;;;;;;;4994267;28;20302;-15
2022/06/28 08:36:05;;;;;;;6.30;1.98;;;;;;;;;;4989262;28;20236;-17
2022/06/28 08:38:32;;;;;;;9.43;1.75;;;;;;;;;;4990795;28;20270;-16
2022/06/28 08:41:00;;;;;;;5.97;1.90;;;;;;;;;;4994317;28;21060;-16
2022/06/28 08:43:27;;;;;;;6.15;1.48;;;;;;;;;;4988522;28;21009;-16
2022/06/28 08:45:55;;;;;;;7.70;1.90;;;;;;;;;;5001628;28;20231;-15
2022/06/28 08:48:24;;;;;;;7.13;1.65;;;;;;;;;;4989426;28;20244;-15
2022/06/28 08:50:52;;;;;;;7.00;1.35;;;;;;;;;;4993558;28;20235;-15
2022/06/28 08:53:20;;;;;;;4.40;1.20;;;;;;;;;;4991789;28;21130;-15
2022/06/28 08:55:47;;;;;;;3.42;1.70;;;;;;;;;;4990718;28;20236;-15
2022/06/28 08:58:15;;;;;;;3.88;1.15;;;;;;;;;;4989629;28;20715;-15
2022/06/28 09:00:42;;;;;;;5.35;1.20;;;;;;;;;;4991328;28;20741;-15
2022/06/28 09:03:10;;;;;;;4.22;1.17;;;;;;;;;;4991213;28;20232;-15
2022/06/28 09:05:38;;;;;;;5.28;1.80;;;;;;;;;;4987478;28;20281;-15
2022/06/28 09:08:06;;;;;;;6.07;1.63;;;;;;;;;;4989956;28;20660;-15
2022/06/28 09:10:33;;;;;;;7.00;1.88;;;;;;;;;;4988110;28;20758;-15
2022/06/28 09:13:18;;;;;;;5.68;1.40;;;;;;;;;;4992205;28;20312;-15
2022/06/28 09:15:46;;;;;;;4.88;1.67;;;;;;;;;;4997867;28;20232;-15
2022/06/28 09:18:13;;;;;;;3.55;1.23;;;;;;;;;;5002280;28;20271;-15
2022/06/28 09:20:42;;;;;;;5.15;1.80;;;;;;;;;;4993677;28;20254;-15
2022/06/28 09:23:26;;;;;;;6.88;1.60;;;;;;;;;;4990362;28;20239;-15
2022/06/28 09:25:54;;;;;;;7.82;1.65;;;;;;;;;;4986923;28;20236;-15
2022/06/28 09:28:26;;;;;;;5.32;1.98;;;;;;;;;;4998005;28;20239;-15
2022/06/28 09:30:53;;;;;;;5.43;1.58;;;;;;;;;;4999052;28;20240;-15
2022/06/28 09:33:27;;;;;;;3.05;1.25;;;;;;;;;;4996339;28;20343;-15
2022/06/28 09:35:56;;;;;;;4.68;1.92;;;;;;;;;;4996004;28;20267;-15
2022/06/28 09:38:32;;;;;;;2.53;1.17;;;;;;;;;;4991520;28;20355;-15
2022/06/28 09:41:00;;;;;;;5.45;1.60;;;;;;;;;;4992239;28;20243;-15
2022/06/28 09:43:30;;;;;;;5.45;1.30;;;;;;;;;;4988132;28;20235;-15
2022/06/28 09:45:57;;;;;;;3.88;1.15;;;;;;;;;;4990231;28;20602;-15
2022/06/28 09:48:25;;;;;;;4.13;1.45;;;;;;;;;;4990022;28;20301;-15
2022/06/28 09:50:58;;;;;;;4.95;1.10;;;;;;;;;;4989337;28;20236;-15
2022/06/28 09:53:26;;;;;;;4.03;1.13;;;;;;;;;;4990598;28;20794;-15
2022/06/28 09:55:53;;;;;;;4.03;1.08;;;;;;;;;;4991218;28;20279;-15
2022/06/28 09:58:22;;;;;;;5.70;1.05;;;;;;;;;;4992981;28;20235;-15
2022/06/28 10:00:50;;;;;;;4.30;1.10;;;;;;;;;;4988038;28;20621;-15
2022/06/28 10:03:17;;;;;;;4.20;1.00;;;;;;;;;;4987242;28;20232;-15
2022/06/28 10:05:45;;;;;;;5.47;1.30;;;;;;;;;;4988426;28;20236;-15
2022/06/28 10:08:13;;;;;;;2.95;0.82;;;;;;;;;;4985903;28;20240;-15
2022/06/28 10:10:41;;;;;;;4.57;1.05;;;;;;;;;;4995519;28;20361;-15
2022/06/28 10:16:03;;;;;;;3.92;1.25;;;;;;;;;;4993503;28;20240;-15
2022/06/28 10:18:30;;;;;;;3.78;0.98;;;;;;;;;;4987728;28;20239;-15
2022/06/28 10:20:57;;;;;;;4.20;1.15;;;;;;;;;;4994217;28;20291;-15
2022/06/28 10:23:27;;;;;;;5.97;1.23;;;;;;;;;;4994904;28;20254;-15
2022/06/28 10:26:01;;;;;;;8.90;1.20;;;;;;;;;;4996830;28;21059;-14
2022/06/28 10:28:29;;;;;;;2.70;1.00;;;;;;;;;;4988751;28;20276;-14
2022/06/28 10:31:11;;;;;;;3.75;0.80;;;;;;;;;;4990954;28;20228;-16
2022/06/28 10:33:59;;;;;;;11.40;1.27;;;;;;;;;;4987831;28;20939;-16
2022/06/28 10:36:27;;;;;;;5.68;1.20;;;;;;;;;;4993126;28;20243;-16
2022/06/28 10:39:12;;;;;;;3.08;0.95;;;;;;;;;;4988880;28;20228;-16
2022/06/28 10:41:40;;;;;;;5.72;1.23;;;;;;;;;;4994237;28;20253;-16
2022/06/28 10:44:08;;;;;;;3.80;0.90;;;;;;;;;;4990409;28;20232;-15
2022/06/28 10:46:35;;;;;;;2.35;0.85;;;;;;;;;;4994851;28;20265;-16
2022/06/28 10:49:11;;;;;;;8.32;1.08;;;;;;;;;;4993641;28;20326;-14
2022/06/28 10:51:43;;;;;;;5.80;0.98;;;;;;;;;;5003183;28;20228;-16
2022/06/28 10:54:12;;;;;;;2.97;1.02;;;;;;;;;;4994518;28;20232;-15
2022/06/28 10:56:40;;;;;;;1.80;0.70;;;;;;;;;;4994337;28;20243;-14
2022/06/28 10:59:08;;;;;;;4.63;1.05;;;;;;;;;;4995323;28;20232;-14
2022/06/28 11:01:57;;;;;;;5.00;1.00;;;;;;;;;;4995018;28;20711;-14
2022/06/28 11:04:25;;;;;;;1.90;0.88;;;;;;;;;;4993395;28;20239;-14
2022/06/28 11:06:53;;;;;;;2.75;1.00;;;;;;;;;;4995158;28;20711;-16
2022/06/28 11:09:26;;;;;;;3.55;0.70;;;;;;;;;;4997064;28;20330;-16
2022/06/28 11:12:06;;;;;;;7.82;1.08;;;;;;;;;;4994611;28;20238;-16
2022/06/28 11:14:35;;;;;;;4.07;0.70;;;;;;;;;;4992942;28;20903;-13
2022/06/28 11:17:13;;;;;;;4.95;0.75;;;;;;;;;;5003640;28;20236;-16
2022/06/28 11:19:50;;;;;;;1.98;0.70;;;;;;;;;;4993099;28;20588;-15
2022/06/28 11:22:18;;;;;;;4.20;1.10;;;;;;;;;;4992259;28;20250;-16
2022/06/28 11:24:47;;;;;;;3.92;0.90;;;;;;;;;;4993266;28;20228;-16
2022/06/28 11:27:24;;;;;;;2.60;0.80;;;;;;;;;;4991803;28;20238;-15
2022/06/28 11:29:52;;;;;;;2.30;0.80;;;;;;;;;;4992881;28;20232;-14
2022/06/28 11:32:20;;;;;;;6.43;1.50;;;;;;;;;;5006025;28;20232;-14
2022/06/28 11:34:55;;;;;;;4.80;0.95;;;;;;;;;;4992237;28;20966;-14
2022/06/28 11:37:22;;;;;;;3.92;1.00;;;;;;;;;;4992599;28;20235;-14
2022/06/28 11:39:55;;;;;;;4.40;0.95;;;;;;;;;;4992763;28;20228;-14
2022/06/28 11:42:22;;;;;;;2.85;0.90;;;;;;;;;;4992556;28;20960;-15
2022/06/28 11:44:50;;;;;;;1.95;0.93;;;;;;;;;;4992185;28;20362;-15
2022/06/28 11:47:17;;;;;;;2.45;0.75;;;;;;;;;;4994807;28;20236;-16
2022/06/28 11:49:45;;;;;;;2.47;0.82;;;;;;;;;;4992524;28;20703;-16
2022/06/28 11:52:16;;;;;;;2.63;1.20;;;;;;;;;;4991521;28;20384;-16
2022/06/28 11:54:44;;;;;;;4.18;0.95;;;;;;;;;;5000060;28;20243;-16
2022/06/28 11:57:16;;;;;;;2.58;0.90;;;;;;;;;;4994765;28;20242;-15
2022/06/28 11:59:51;;;;;;;3.10;0.80;;;;;;;;;;4986496;28;20238;-15
2022/06/28 12:02:34;;;;;;;1.60;0.80;;;;;;;;;;5007424;28;20855;-16
2022/06/28 12:05:01;;;;;;;2.53;1.02;;;;;;;;;;4992239;28;20236;-16
2022/06/28 12:07:32;;;;;;;2.30;0.75;;;;;;;;;;4995157;28;20236;-15
2022/06/28 12:10:00;;;;;;;2.78;0.90;;;;;;;;;;4992683;28;20226;-15
2022/06/28 12:12:29;;;;;;;5.00;0.70;;;;;;;;;;4992441;28;20232;-15
2022/06/28 12:14:56;;;;;;;2.72;0.73;;;;;;;;;;4990656;28;20840;-15
2022/06/28 12:17:24;;;;;;;4.32;0.90;;;;;;;;;;4991627;28;20242;-15
2022/06/28 12:19:51;;;;;;;2.75;0.70;;;;;;;;;;4992133;28;20236;-15
2022/06/28 12:22:19;;;;;;;6.50;0.75;;;;;;;;;;4991611;28;20243;-16
2022/06/28 12:24:47;;;;;;;3.03;0.90;;;;;;;;;;4986303;28;20247;-16
2022/06/28 12:27:22;;;;;;;1.10;0.60;;;;;;;;;;4987353;28;20287;-15
2022/06/28 12:29:52;;;;;;;1.88;0.70;;;;;;;;;;4987131;28;20236;-16
2022/06/28 12:32:19;;;;;;;2.22;0.90;;;;;;;;;;4990127;28;20233;-15
2022/06/28 12:35:07;;;;;;;1.95;0.95;;;;;;;;;;4985686;28;20229;-15
2022/06/28 12:37:34;;;;;;;3.65;0.95;;;;;;;;;;4989888;28;20236;-17
2022/06/28 12:40:03;;;;;;;2.17;0.80;;;;;;;;;;4990045;28;20232;-15
2022/06/28 12:42:30;;;;;;;4.55;0.88;;;;;;;;;;4986011;28;20719;-14
2022/06/28 12:45:00;;;;;;;3.45;0.77;;;;;;;;;;4989634;28;20240;-14
2022/06/28 12:47:28;;;;;;;6.93;0.90;;;;;;;;;;5000452;28;20266;-17
2022/06/28 12:49:56;;;;;;;2.92;0.60;;;;;;;;;;4988038;28;20243;-16
2022/06/28 12:52:23;;;;;;;1.30;0.60;;;;;;;;;;4997939;28;20235;-16
2022/06/28 12:54:51;;;;;;;4.13;0.80;;;;;;;;;;4998842;28;20239;-16
2022/06/28 12:57:18;;;;;;;4.63;0.80;;;;;;;;;;5004805;28;20235;-16
2022/06/28 12:59:45;;;;;;;3.90;1.00;;;;;;;;;;4990695;28;20243;-16
2022/06/28 13:02:14;;;;;;;2.08;0.70;;;;;;;;;;4992186;28;20250;-16
2022/06/28 13:04:42;;;;;;;4.45;0.90;;;;;;;;;;4999300;28;20247;-17
2022/06/28 13:07:10;;;;;;;2.17;0.75;;;;;;;;;;4994951;28;21081;-16
2022/06/28 13:09:37;;;;;;;4.40;0.90;;;;;;;;;;4988831;28;20243;-16
2022/06/28 13:12:05;;;;;;;2.55;0.70;;;;;;;;;;4989170;28;20243;-16
2022/06/28 13:14:32;;;;;;;3.10;1.08;;;;;;;;;;4996628;28;20231;-16
2022/06/28 13:17:00;;;;;;;2.58;0.98;;;;;;;;;;4994510;28;20246;-16
2022/06/28 13:19:28;;;;;;;4.70;1.35;;;;;;;;;;4998891;28;20247;-16
2022/06/28 13:21:56;;;;;;;2.35;1.05;;;;;;;;;;4993931;28;20252;-16
2022/06/28 13:24:23;;;;;;;1.92;1.00;;;;;;;;;;4990135;28;20244;-16
2022/06/28 13:26:51;;;;;;;2.30;1.20;;;;;;;;;;4995675;28;20232;-16
2022/06/28 13:29:18;;;;;;;4.50;1.10;;;;;;;;;;5004209;28;20700;-15
2022/06/28 13:31:46;;;;;;;6.28;1.05;;;;;;;;;;5002033;28;20246;-15
2022/06/28 13:34:20;;;;;;;7.25;1.08;;;;;;;;;;4997889;28;20228;-14
2022/06/28 13:36:49;;;;;;;4.97;1.30;;;;;;;;;;4998927;28;20242;-15
2022/06/28 13:39:16;;;;;;;3.95;1.23;;;;;;;;;;5000497;28;20626;-14
2022/06/28 13:41:43;;;;;;;2.15;1.05;;;;;;;;;;4994502;28;20243;-15
2022/06/28 13:44:13;;;;;;;3.15;1.00;;;;;;;;;;5000741;28;20240;-14
2022/06/28 13:46:40;;;;;;;3.30;1.05;;;;;;;;;;4986774;28;20323;-15
2022/06/28 13:49:07;;;;;;;3.13;1.13;;;;;;;;;;4995088;28;20243;-15
2022/06/28 13:51:35;;;;;;;4.93;0.95;;;;;;;;;;5001485;28;20235;-15
2022/06/28 13:54:03;;;;;;;3.33;1.23;;;;;;;;;;5006376;28;20920;-15
2022/06/28 13:56:32;;;;;;;8.35;1.20;;;;;;;;;;4999087;28;20782;-15
2022/06/28 13:58:59;;;;;;;1.65;0.95;;;;;;;;;;4994866;28;20934;-15
2022/06/28 14:01:26;;;;;;;2.53;1.13;;;;;;;;;;4992474;28;20232;-15
2022/06/28 14:03:54;;;;;;;3.38;1.08;;;;;;;;;;4992974;28;20250;-15
2022/06/28 14:06:21;;;;;;;1.55;0.93;;;;;;;;;;4996774;28;21078;-15
2022/06/28 14:08:49;;;;;;;4.82;0.80;;;;;;;;;;4990742;28;20716;-17
2022/06/28 14:11:17;;;;;;;2.50;0.95;;;;;;;;;;4989954;28;21039;-15
2022/06/28 14:13:45;;;;;;;8.25;1.23;;;;;;;;;;4996301;28;20232;-16
2022/06/28 14:16:12;;;;;;;3.63;1.05;;;;;;;;;;5000662;28;20251;-16
2022/06/28 14:18:40;;;;;;;2.90;1.20;;;;;;;;;;5000281;28;20242;-16
2022/06/28 14:21:07;;;;;;;2.30;0.80;;;;;;;;;;4987368;28;20244;-16
2022/06/28 14:23:34;;;;;;;5.30;1.00;;;;;;;;;;4987514;28;20240;-16
2022/06/28 14:26:02;;;;;;;2.88;1.05;;;;;;;;;;4989996;28;20239;-16
2022/06/28 14:28:31;;;;;;;4.18;1.13;;;;;;;;;;4998533;28;20235;-16
2022/06/28 14:30:59;;;;;;;2.38;0.88;;;;;;;;;;4994374;28;21110;-16
2022/06/28 14:33:26;;;;;;;2.92;0.70;;;;;;;;;;5001836;28;20258;-16
2022/06/28 14:35:54;;;;;;;2.67;0.95;;;;;;;;;;4996321;28;20239;-16
2022/06/28 14:38:22;;;;;;;4.18;0.82;;;;;;;;;;4987167;28;20258;-16
2022/06/28 14:40:49;;;;;;;2.25;0.65;;;;;;;;;;4986697;28;20231;-16
2022/06/28 14:43:17;;;;;;;2.67;1.17;;;;;;;;;;4990339;28;20687;-16
2022/06/28 14:45:46;;;;;;;4.38;0.70;;;;;;;;;;4991729;28;20228;-16
2022/06/28 14:48:21;;;;;;;4.75;0.90;;;;;;;;;;4995586;28;20246;-16
2022/06/28 14:50:49;;;;;;;2.97;1.00;;;;;;;;;;5000831;28;20754;-16
2022/06/28 14:53:16;;;;;;;1.17;0.55;;;;;;;;;;4999901;28;20631;-16
2022/06/28 14:55:48;;;;;;;2.80;1.40;;;;;;;;;;4992299;28;20247;-16
2022/06/28 14:58:15;;;;;;;3.33;0.93;;;;;;;;;;4989571;28;20248;-16
2022/06/28 15:00:42;;;;;;;2.45;0.75;;;;;;;;;;4992322;28;20240;-16
2022/06/28 15:03:11;;;;;;;2.78;0.93;;;;;;;;;;4989311;28;20256;-16
2022/06/28 15:05:39;;;;;;;1.65;0.82;;;;;;;;;;4994813;28;20243;-16